Mc Kellar Sipes Regional Airport
KMKL : now visible

Airfield :











YOU CAN JOIN US ON...

 
LOGIN :

Register | Disclaimer

   EN    FR    IT 

 









Legend :    VFR   Marginal VFR   IFR   Intensive IFR   Very Intensive IFR
Visi :
Ceiling :
>= 8 km
>= 3000ft
5 to 8 km
1000 to 3000 ft
1500m to 5 km
500 to 1000 ft
800 to 1500m
200 to 500 ft
< 800m
< 200 ft
Symbols :   Thunderstorms  Fog  Heavy snow  Heavy precipitations  Wind > 20 kt






- Airport Elevation : 434 ft
- IATA code : MKL


KMKL - Mc Kellar Sipes Regional

CURRENT METAR :
  • 151453Z 25006KT 10SM CLR 31/24 A3005 RMK AO2 SLP169 T03060239 50000

EXPIRED METARs :
  • 151353Z 22007KT 10SM CLR 29/24 A3006 RMK AO2 SLP172 T02940239
  • 151253Z 23007KT 10SM CLR 28/23 A3006 RMK AO2 SLP174 T02780233
  • 151153Z 20004KT 10SM CLR 26/23 A3005 RMK AO2 SLP169 T02560228 10256 20233 53005
  • 151053Z AUTO 20005KT 10SM CLR 24/22 A3004 RMK AO2 SLP166 T02390222 $

TAF KMKL
Valid from the 15 at 12:00 until the 16 at 12:00 UTC


151120Z 1512/1612 20005KT P6SM FEW150
FM151500 23006KT P6SM FEW050
KZME FIR / North America



MET'MAP, your aeronautical weather chart ! - Copyright ORBIFLY December 2007 - Disclaimer

ORBIFLY MET'MAP TEAM :

Programming & Development : Alexandra Zaïnal
Original concept : Baudouin d'Aumeries
Technical & hardware support : Manuel Goepfert
Assistance : Marc-Olivier Méhu




SOURCES & CREDITS :

   NOAA       Earth
Advisory